Авиационная погода в Атырау

СКИДКИ НА СМАРТФОНЫ!

Регион: 
Погода METAR: 
UATG 091530Z 34004MPS 8000 SCT033CB 30/13 Q1014 NOSIG RMK QFE762/1016
Время наблюдения
2022-08-09T15:30:00Z
Температура C
30.0
Точка росы
13.0
Направление ветра
340
Скорость ветра (узлы)
8
Метео видимость
4.97
Облачность
SCT
Нижняя граница облачности (футы)
3300
Явления погоды
Условия полета
MVFR
SCT – разбросанная отдельная облачность;

Скидки на навигаторы!